createdAt,value
2023-03-06T00:00:59.565Z,6.50
2023-03-06T00:03:28.232Z,6.03
2023-03-06T00:05:57.548Z,3.85
2023-03-06T00:08:24.946Z,4.35
2023-03-06T00:10:51.722Z,5.95
2023-03-06T00:13:21.141Z,7.20
2023-03-06T00:15:48.885Z,7.30
2023-03-06T00:18:15.754Z,6.18
2023-03-06T00:20:43.074Z,8.55
2023-03-06T00:23:10.475Z,4.30
2023-03-06T00:25:38.913Z,3.78
2023-03-06T00:28:06.304Z,4.97
2023-03-06T00:30:33.448Z,5.78
2023-03-06T00:33:00.217Z,4.40
2023-03-06T00:35:27.047Z,4.93
2023-03-06T00:37:53.986Z,4.63
2023-03-06T00:40:21.280Z,5.97
2023-03-06T00:42:48.376Z,4.85
2023-03-06T00:45:15.288Z,5.57
2023-03-06T00:47:42.154Z,6.20
2023-03-06T00:50:09.995Z,4.97
2023-03-06T00:52:36.893Z,6.32
2023-03-06T00:55:04.285Z,4.90
2023-03-06T00:57:31.071Z,3.90
2023-03-06T00:59:57.843Z,6.03
2023-03-06T01:02:24.768Z,6.32
2023-03-06T01:04:51.579Z,6.35
2023-03-06T01:07:18.461Z,3.88
2023-03-06T01:09:45.308Z,4.50
2023-03-06T01:12:12.175Z,6.40
2023-03-06T01:14:39.018Z,4.75
2023-03-06T01:17:05.943Z,4.78
2023-03-06T01:19:32.809Z,6.53
2023-03-06T01:21:59.575Z,7.18
2023-03-06T01:24:26.325Z,6.22
2023-03-06T01:26:53.079Z,6.53
2023-03-06T01:29:20.334Z,4.55
2023-03-06T01:31:47.173Z,7.38
2023-03-06T01:34:13.991Z,5.07
2023-03-06T01:36:40.872Z,7.30
2023-03-06T01:39:07.687Z,5.47
2023-03-06T01:41:34.499Z,7.50
2023-03-06T01:44:01.943Z,5.28
2023-03-06T01:46:28.613Z,5.70
2023-03-06T01:48:59.491Z,4.55
2023-03-06T01:51:38.886Z,6.03
2023-03-06T01:54:09.484Z,5.43
2023-03-06T01:56:36.320Z,5.20
2023-03-06T01:59:03.127Z,5.10
2023-03-06T02:01:31.134Z,4.95
2023-03-06T02:03:57.929Z,4.60
2023-03-06T02:06:24.714Z,6.57
2023-03-06T02:08:51.880Z,5.88
2023-03-06T02:11:31.334Z,4.60
2023-03-06T02:13:58.115Z,5.50
2023-03-06T02:16:26.896Z,7.38
2023-03-06T02:18:53.757Z,4.70
2023-03-06T02:21:25.631Z,5.63
2023-03-06T02:23:56.211Z,3.83
2023-03-06T02:26:23.008Z,5.45
2023-03-06T02:28:49.798Z,5.10
2023-03-06T02:31:28.493Z,4.88
2023-03-06T02:34:03.253Z,4.07
2023-03-06T02:36:30.020Z,5.20
2023-03-06T02:38:56.801Z,5.20
2023-03-06T02:41:23.635Z,3.65
2023-03-06T02:43:50.384Z,5.32
2023-03-06T02:46:17.257Z,7.88
2023-03-06T02:48:44.080Z,5.50
2023-03-06T02:51:10.831Z,6.72
2023-03-06T02:53:37.616Z,4.68
2023-03-06T02:56:04.529Z,4.28
2023-03-06T02:58:31.310Z,7.75
2023-03-06T03:00:58.117Z,7.35
2023-03-06T03:03:24.852Z,7.18
2023-03-06T03:05:51.613Z,6.13
2023-03-06T03:08:18.438Z,3.58
2023-03-06T03:10:45.224Z,3.53
2023-03-06T03:13:11.984Z,3.85
2023-03-06T03:15:38.893Z,4.43
2023-03-06T03:18:05.697Z,5.07
2023-03-06T03:20:32.476Z,4.68
2023-03-06T03:22:59.260Z,5.20
2023-03-06T03:25:26.193Z,5.93
2023-03-06T03:27:53.003Z,5.82
2023-03-06T03:30:19.938Z,9.10
2023-03-06T03:32:46.781Z,5.15
2023-03-06T03:35:13.580Z,3.20
2023-03-06T03:37:40.374Z,4.88
2023-03-06T03:40:08.046Z,4.68
2023-03-06T03:42:34.901Z,6.38
2023-03-06T03:45:01.802Z,6.57
2023-03-06T03:47:28.589Z,7.18
2023-03-06T03:49:55.394Z,3.63
2023-03-06T03:52:22.135Z,5.45
2023-03-06T03:54:48.921Z,4.28
2023-03-06T03:57:15.779Z,6.65
2023-03-06T03:59:42.568Z,5.65
2023-03-06T04:02:09.462Z,5.93
2023-03-06T04:04:36.325Z,5.72
2023-03-06T04:07:04.496Z,3.78
2023-03-06T04:09:31.361Z,5.40
2023-03-06T04:11:58.294Z,4.47
2023-03-06T04:14:25.071Z,3.85
2023-03-06T04:16:51.893Z,3.05
2023-03-06T04:19:18.747Z,4.68
2023-03-06T04:21:45.577Z,4.28
2023-03-06T04:24:12.420Z,4.57
2023-03-06T04:26:39.230Z,7.05
2023-03-06T04:29:06.027Z,2.63
2023-03-06T04:31:32.862Z,5.13
2023-03-06T04:33:59.688Z,5.15
2023-03-06T04:36:31.584Z,4.78
2023-03-06T04:38:58.605Z,3.63
2023-03-06T04:41:25.373Z,4.60
2023-03-06T04:43:52.387Z,3.72
2023-03-06T04:46:19.163Z,2.55
2023-03-06T04:48:45.961Z,7.07
2023-03-06T04:51:13.285Z,3.80
2023-03-06T04:53:40.108Z,4.85
2023-03-06T04:56:07.211Z,2.88
2023-03-06T04:58:34.002Z,4.20
2023-03-06T05:01:00.948Z,2.80
2023-03-06T05:03:27.914Z,6.25
2023-03-06T05:05:54.707Z,5.68
2023-03-06T05:08:21.547Z,4.70
2023-03-06T05:10:56.728Z,4.38
2023-03-06T05:13:23.641Z,4.85
2023-03-06T05:15:50.410Z,3.40
2023-03-06T05:18:17.326Z,3.35
2023-03-06T05:20:44.117Z,3.95
2023-03-06T05:23:10.964Z,5.45
2023-03-06T05:25:40.904Z,4.82
2023-03-06T05:28:08.132Z,3.20
2023-03-06T05:30:35.010Z,5.35
2023-03-06T05:33:01.775Z,5.20
2023-03-06T05:35:28.675Z,6.20
2023-03-06T05:37:55.427Z,4.22
2023-03-06T05:40:22.300Z,3.97
2023-03-06T05:42:49.093Z,3.25
2023-03-06T05:45:15.896Z,4.97
2023-03-06T05:47:42.669Z,5.80
2023-03-06T05:50:10.639Z,3.95
2023-03-06T05:52:39.747Z,4.45
2023-03-06T05:55:07.574Z,3.95
2023-03-06T05:57:34.358Z,5.78
2023-03-06T06:00:01.222Z,5.22
2023-03-06T06:02:28.090Z,7.70
2023-03-06T06:04:54.880Z,4.43
2023-03-06T06:07:21.809Z,5.82
2023-03-06T06:09:48.575Z,6.97
2023-03-06T06:12:15.375Z,4.53
2023-03-06T06:14:42.234Z,6.22
2023-03-06T06:17:09.099Z,6.22
2023-03-06T06:19:35.987Z,5.90
2023-03-06T06:22:03.918Z,3.63
2023-03-06T06:24:31.016Z,5.05
2023-03-06T06:26:58.237Z,5.35
2023-03-06T06:29:25.406Z,6.40
2023-03-06T06:31:52.408Z,6.22
2023-03-06T06:34:19.365Z,4.00
2023-03-06T06:36:46.253Z,5.85
2023-03-06T06:39:15.608Z,5.60
2023-03-06T06:41:59.325Z,6.15
2023-03-06T06:44:29.215Z,4.93
2023-03-06T06:49:42.741Z,5.25
2023-03-06T06:52:10.615Z,4.97
2023-03-06T06:54:37.408Z,8.90
2023-03-06T06:57:04.244Z,4.65
2023-03-06T06:59:31.156Z,6.47
2023-03-06T07:01:58.002Z,5.32
2023-03-06T07:04:24.813Z,6.63
2023-03-06T07:06:51.591Z,6.43
2023-03-06T07:09:18.412Z,6.32
2023-03-06T07:11:45.179Z,6.18
2023-03-06T07:14:11.968Z,7.03
2023-03-06T07:16:38.830Z,6.90
2023-03-06T07:19:06.056Z,9.75
2023-03-06T07:21:32.830Z,8.02
2023-03-06T07:23:59.733Z,7.45
2023-03-06T07:26:27.161Z,7.68
2023-03-06T07:28:54.437Z,8.23
2023-03-06T07:31:22.466Z,7.10
2023-03-06T07:33:50.180Z,10.55
2023-03-06T07:36:17.151Z,7.68
2023-03-06T07:38:43.963Z,7.93
2023-03-06T07:41:13.679Z,6.20
2023-03-06T07:43:41.336Z,7.97
2023-03-06T07:46:08.717Z,6.93
2023-03-06T07:48:36.440Z,7.18
2023-03-06T07:51:07.984Z,7.82
2023-03-06T07:53:35.003Z,7.57
2023-03-06T07:56:01.810Z,8.32
2023-03-06T07:58:28.686Z,5.88
2023-03-06T08:00:55.424Z,5.00
2023-03-06T08:03:22.224Z,6.47
2023-03-06T08:05:49.022Z,6.97
2023-03-06T08:08:15.804Z,9.98
2023-03-06T08:10:47.958Z,5.35
2023-03-06T08:13:14.769Z,6.90
2023-03-06T08:15:41.555Z,8.20
2023-03-06T08:18:08.331Z,5.57
2023-03-06T08:20:35.063Z,7.18
2023-03-06T08:23:01.829Z,5.63
2023-03-06T08:25:29.536Z,7.03
2023-03-06T08:27:56.299Z,6.10
2023-03-06T08:30:23.182Z,6.33
2023-03-06T08:32:50.070Z,7.57
2023-03-06T08:35:16.861Z,5.68
2023-03-06T08:37:43.685Z,7.68
2023-03-06T08:40:11.286Z,8.27
2023-03-06T08:42:38.012Z,5.37
2023-03-06T08:45:06.133Z,5.72
2023-03-06T08:47:34.962Z,6.60
2023-03-06T08:50:01.687Z,7.18
2023-03-06T08:52:28.477Z,5.68
2023-03-06T08:54:55.225Z,5.77
2023-03-06T08:57:21.975Z,6.88
2023-03-06T08:59:48.752Z,8.02
2023-03-06T09:02:15.675Z,9.57
2023-03-06T09:04:42.473Z,7.07
2023-03-06T09:07:09.256Z,5.67
2023-03-06T09:09:36.158Z,8.02
2023-03-06T09:12:03.033Z,7.45
2023-03-06T09:14:30.893Z,6.05
2023-03-06T09:16:57.878Z,5.72
2023-03-06T09:19:24.728Z,6.10
2023-03-06T09:21:51.546Z,6.43
2023-03-06T09:24:18.364Z,5.47
2023-03-06T09:26:47.181Z,6.13
2023-03-06T09:29:16.531Z,5.45
2023-03-06T09:31:43.959Z,5.80
2023-03-06T09:34:10.738Z,5.25
2023-03-06T09:36:53.434Z,5.18
2023-03-06T09:39:22.263Z,6.05
2023-03-06T09:41:49.619Z,5.43
2023-03-06T09:44:26.102Z,5.30
2023-03-06T09:46:58.602Z,4.32
2023-03-06T09:49:44.843Z,5.40
2023-03-06T09:52:46.932Z,5.00
2023-03-06T09:55:17.011Z,6.35
2023-03-06T09:57:58.131Z,6.07
2023-03-06T10:00:30.992Z,5.95
2023-03-06T10:03:01.216Z,5.78
2023-03-06T10:05:33.584Z,4.82
2023-03-06T10:08:12.649Z,5.82
2023-03-06T10:11:02.274Z,6.77
2023-03-06T10:13:42.555Z,5.07
2023-03-06T10:16:24.096Z,5.43
2023-03-06T10:18:51.057Z,5.38
2023-03-06T10:21:31.455Z,5.45
2023-03-06T10:24:15.790Z,5.37
2023-03-06T10:26:45.312Z,4.47
2023-03-06T10:29:33.772Z,5.80
2023-03-06T10:32:23.275Z,5.80
2023-03-06T10:34:50.104Z,5.47
2023-03-06T10:37:21.696Z,5.47
2023-03-06T10:39:52.654Z,6.38
2023-03-06T10:42:19.449Z,4.75
2023-03-06T10:44:46.235Z,6.38
2023-03-06T10:47:35.186Z,6.60
2023-03-06T10:50:03.223Z,4.53
2023-03-06T10:52:31.983Z,4.47
2023-03-06T10:55:30.557Z,3.53
2023-03-06T10:57:57.452Z,6.72
2023-03-06T11:00:36.155Z,5.55
2023-03-06T11:03:22.594Z,4.93
2023-03-06T11:06:06.657Z,3.45
2023-03-06T11:08:33.654Z,4.85
2023-03-06T11:11:03.230Z,3.90
2023-03-06T11:13:32.440Z,5.53
2023-03-06T11:16:19.564Z,4.60
2023-03-06T11:19:00.657Z,3.58
2023-03-06T11:21:32.209Z,6.22
2023-03-06T11:24:09.251Z,4.28
2023-03-06T11:26:45.850Z,5.25
2023-03-06T11:29:36.925Z,5.20
2023-03-06T11:32:33.372Z,4.57
2023-03-06T11:35:16.405Z,4.97
2023-03-06T11:37:46.847Z,4.82
2023-03-06T11:40:33.836Z,4.32
2023-03-06T11:43:38.091Z,4.70
2023-03-06T11:46:10.569Z,4.35
2023-03-06T11:48:44.216Z,4.63
2023-03-06T11:51:30.887Z,3.92
2023-03-06T11:53:58.974Z,4.25
2023-03-06T11:56:47.369Z,4.70
2023-03-06T11:59:42.032Z,5.07
2023-03-06T12:02:39.706Z,4.45
2023-03-06T12:05:25.060Z,6.05
2023-03-06T12:08:09.848Z,8.00
2023-03-06T12:10:42.030Z,7.07
2023-03-06T12:13:33.710Z,8.43
2023-03-06T12:16:27.502Z,6.32
2023-03-06T12:18:54.303Z,6.45
2023-03-06T12:21:45.554Z,6.93
2023-03-06T12:24:30.511Z,7.00
2023-03-06T12:26:57.213Z,6.97
2023-03-06T12:29:36.829Z,6.80
2023-03-06T12:32:03.638Z,8.05
2023-03-06T12:34:45.588Z,6.88
2023-03-06T12:37:17.548Z,7.57
2023-03-06T12:39:48.444Z,8.10
2023-03-06T12:42:33.986Z,7.78
2023-03-06T12:45:15.507Z,9.52
2023-03-06T12:47:43.508Z,10.10
2023-03-06T12:50:19.658Z,9.10
2023-03-06T12:52:46.448Z,7.70
2023-03-06T12:55:15.895Z,7.53
2023-03-06T12:57:42.671Z,6.10
2023-03-06T13:00:34.533Z,8.63
2023-03-06T13:03:04.201Z,9.30
2023-03-06T13:05:52.583Z,6.80
2023-03-06T13:08:56.957Z,9.93
2023-03-06T13:11:28.453Z,14.10
2023-03-06T13:13:55.249Z,16.02
2023-03-06T13:16:29.020Z,16.83
2023-03-06T13:19:01.392Z,15.55
2023-03-06T13:21:55.657Z,13.63
2023-03-06T13:24:37.360Z,12.75
2023-03-06T13:27:09.465Z,14.18
2023-03-06T13:29:36.179Z,12.30
2023-03-06T13:32:03.146Z,13.23
2023-03-06T13:34:50.190Z,12.90
2023-03-06T13:37:17.042Z,12.68
2023-03-06T13:39:55.774Z,13.75
2023-03-06T13:42:26.471Z,17.93
2023-03-06T13:44:53.309Z,15.82
2023-03-06T13:47:21.804Z,9.90
2023-03-06T13:49:48.614Z,14.20
2023-03-06T13:52:23.154Z,12.27
2023-03-06T13:55:08.081Z,11.50
2023-03-06T13:57:57.480Z,10.60
2023-03-06T14:00:58.078Z,8.80
2023-03-06T14:03:49.863Z,9.05
2023-03-06T14:06:35.271Z,8.80
2023-03-06T14:09:05.595Z,8.13
2023-03-06T14:11:32.491Z,7.07
2023-03-06T14:13:59.510Z,8.32
2023-03-06T14:16:37.545Z,7.25
2023-03-06T14:19:15.750Z,6.22
2023-03-06T14:21:47.571Z,5.83
2023-03-06T14:24:19.028Z,8.60
2023-03-06T14:26:52.106Z,8.05
2023-03-06T14:29:23.580Z,5.82
2023-03-06T14:31:51.770Z,6.00
2023-03-06T14:34:21.846Z,6.23
2023-03-06T14:36:50.290Z,6.32
2023-03-06T14:39:34.138Z,8.50
2023-03-06T14:42:21.151Z,8.15
2023-03-06T14:44:48.842Z,8.95
2023-03-06T14:47:35.042Z,9.20
2023-03-06T14:50:24.472Z,8.38
2023-03-06T14:52:56.289Z,8.45
2023-03-06T14:55:24.763Z,8.98
2023-03-06T14:58:11.072Z,8.48
2023-03-06T15:00:40.931Z,7.47
2023-03-06T15:03:12.980Z,8.00
2023-03-06T15:05:39.810Z,6.72
2023-03-06T15:08:07.469Z,9.73
2023-03-06T15:10:34.936Z,10.68
2023-03-06T15:13:28.959Z,9.27
2023-03-06T15:16:04.686Z,11.02
2023-03-06T15:18:39.217Z,10.00
2023-03-06T15:21:10.909Z,8.18
2023-03-06T15:23:42.093Z,8.57
2023-03-06T15:26:29.524Z,10.53
2023-03-06T15:29:10.359Z,9.82
2023-03-06T15:31:42.139Z,9.52
2023-03-06T15:34:11.627Z,10.05
2023-03-06T15:36:39.115Z,9.57
2023-03-06T15:39:27.609Z,10.43
2023-03-06T15:42:20.429Z,8.13
2023-03-06T15:44:54.289Z,9.77
2023-03-06T15:47:21.714Z,10.98
2023-03-06T15:49:53.395Z,9.70
2023-03-06T15:52:23.293Z,9.33
2023-03-06T15:54:50.187Z,8.70
2023-03-06T15:57:25.322Z,9.32
2023-03-06T15:59:52.133Z,9.23
2023-03-06T16:02:20.473Z,7.93
2023-03-06T16:04:47.414Z,7.93
2023-03-06T16:07:14.296Z,8.95
2023-03-06T16:09:41.862Z,9.65
2023-03-06T16:12:26.493Z,9.50
2023-03-06T16:14:53.346Z,7.85
2023-03-06T16:17:20.142Z,8.27
2023-03-06T16:19:46.935Z,10.98
2023-03-06T16:22:13.968Z,11.02
2023-03-06T16:24:42.079Z,8.32
2023-03-06T16:27:15.336Z,14.23
2023-03-06T16:29:42.176Z,10.33
2023-03-06T16:32:10.355Z,7.70
2023-03-06T16:34:37.165Z,8.43
2023-03-06T16:37:03.930Z,12.27
2023-03-06T16:39:30.851Z,10.93
2023-03-06T16:41:57.702Z,9.10
2023-03-06T16:44:24.525Z,8.93
2023-03-06T16:46:51.317Z,8.82
2023-03-06T16:49:20.080Z,7.82
2023-03-06T16:51:47.094Z,11.10
2023-03-06T16:54:14.133Z,10.77
2023-03-06T16:56:41.092Z,8.90
2023-03-06T16:59:08.028Z,12.05
2023-03-06T17:01:34.978Z,11.98
2023-03-06T17:04:01.985Z,11.77
2023-03-06T17:06:30.287Z,11.97
2023-03-06T17:08:58.200Z,14.43
2023-03-06T17:11:25.206Z,15.82
2023-03-06T17:13:52.028Z,15.93
2023-03-06T17:16:18.931Z,17.00
2023-03-06T17:18:46.274Z,10.47
2023-03-06T17:21:15.651Z,16.25
2023-03-06T17:23:42.746Z,15.32
2023-03-06T17:26:18.889Z,13.32
2023-03-06T17:28:45.994Z,13.70
2023-03-06T17:31:16.069Z,14.23
2023-03-06T17:33:43.020Z,13.80
2023-03-06T17:36:10.189Z,18.02
2023-03-06T17:38:37.078Z,12.75
2023-03-06T17:41:07.608Z,15.00
2023-03-06T17:43:34.338Z,15.83
2023-03-06T17:46:11.004Z,16.80
2023-03-06T17:48:38.009Z,16.58
2023-03-06T17:51:05.138Z,11.73
2023-03-06T17:53:32.055Z,11.27
2023-03-06T17:55:59.083Z,12.07
2023-03-06T17:58:26.774Z,10.80
2023-03-06T18:00:53.689Z,10.45
2023-03-06T18:03:20.601Z,12.68
2023-03-06T18:05:47.388Z,13.93
2023-03-06T18:08:14.311Z,11.40
2023-03-06T18:10:41.876Z,10.88
2023-03-06T18:13:08.896Z,11.20
2023-03-06T18:15:39.503Z,11.20
2023-03-06T18:18:06.614Z,10.35
2023-03-06T18:20:33.438Z,9.43
2023-03-06T18:23:03.616Z,8.85
2023-03-06T18:25:31.711Z,8.52
2023-03-06T18:27:58.694Z,11.32
2023-03-06T18:30:25.603Z,10.25
2023-03-06T18:32:52.432Z,8.83
2023-03-06T18:35:19.199Z,10.32
2023-03-06T18:37:45.983Z,8.73
2023-03-06T18:40:13.569Z,10.57
2023-03-06T18:42:40.369Z,9.25
2023-03-06T18:45:07.968Z,8.40
2023-03-06T18:47:34.833Z,8.55
2023-03-06T18:50:02.894Z,9.32
2023-03-06T18:52:29.705Z,8.60
2023-03-06T18:54:56.523Z,7.85
2023-03-06T18:57:23.405Z,10.83
2023-03-06T18:59:50.232Z,8.98
2023-03-06T19:02:17.127Z,7.40
2023-03-06T19:04:43.912Z,8.27
2023-03-06T19:07:11.256Z,7.40
2023-03-06T19:09:38.116Z,8.43
2023-03-06T19:12:05.756Z,7.88
2023-03-06T19:14:32.694Z,10.27
2023-03-06T19:16:59.537Z,8.43
2023-03-06T19:19:26.963Z,8.73
2023-03-06T19:21:53.894Z,11.37
2023-03-06T19:24:20.632Z,11.35
2023-03-06T19:26:47.481Z,10.90
2023-03-06T19:29:14.265Z,12.43
2023-03-06T19:31:41.296Z,13.15
2023-03-06T19:34:08.339Z,13.68
2023-03-06T19:36:35.216Z,15.10
2023-03-06T19:39:03.310Z,14.13
2023-03-06T19:41:30.097Z,13.88
2023-03-06T19:43:58.518Z,13.63
2023-03-06T19:46:25.557Z,14.77
2023-03-06T19:49:00.199Z,15.20
2023-03-06T19:51:27.419Z,15.02
2023-03-06T19:53:54.236Z,12.98
2023-03-06T19:56:23.260Z,18.35
2023-03-06T19:58:50.099Z,13.90
2023-03-06T20:01:18.301Z,14.23
2023-03-06T20:03:45.099Z,18.55
2023-03-06T20:06:16.494Z,20.33
2023-03-06T20:08:43.820Z,17.35
2023-03-06T20:11:26.896Z,17.42
2023-03-06T20:13:54.101Z,17.40
2023-03-06T20:16:20.907Z,17.15
2023-03-06T20:18:47.701Z,18.45
2023-03-06T20:21:14.750Z,20.40
2023-03-06T20:23:41.808Z,19.48
2023-03-06T20:26:10.406Z,21.23
2023-03-06T20:28:39.171Z,21.67
2023-03-06T20:31:10.287Z,20.52
2023-03-06T20:33:37.169Z,20.33
2023-03-06T20:36:04.408Z,20.52
2023-03-06T20:38:31.265Z,21.60
2023-03-06T20:40:59.778Z,22.00
2023-03-06T20:43:26.593Z,21.10
2023-03-06T20:46:00.689Z,20.33
2023-03-06T20:48:27.550Z,21.35
2023-03-06T20:51:04.919Z,19.63
2023-03-06T20:53:32.111Z,20.23
2023-03-06T20:55:58.888Z,22.88
2023-03-06T20:58:28.696Z,23.95
2023-03-06T21:00:56.110Z,22.27
2023-03-06T21:03:22.889Z,25.85
2023-03-06T21:05:49.836Z,19.80
2023-03-06T21:08:16.715Z,24.13
2023-03-06T21:10:44.837Z,24.98
2023-03-06T21:13:11.704Z,21.67
2023-03-06T21:15:39.544Z,24.45
2023-03-06T21:18:06.449Z,22.83
2023-03-06T21:20:33.832Z,23.80
2023-03-06T21:23:01.809Z,23.20
2023-03-06T21:25:29.157Z,20.05
2023-03-06T21:27:56.117Z,22.90
2023-03-06T21:30:22.890Z,24.67
2023-03-06T21:32:51.098Z,22.02
2023-03-06T21:35:18.682Z,24.67
2023-03-06T21:37:46.023Z,22.88
2023-03-06T21:40:14.207Z,23.13
2023-03-06T21:42:41.560Z,23.17
2023-03-06T21:45:08.860Z,23.35
2023-03-06T21:47:38.998Z,22.33
2023-03-06T21:50:07.423Z,23.38
2023-03-06T21:52:34.374Z,22.00
2023-03-06T21:55:01.155Z,25.90
2023-03-06T21:57:28.019Z,22.70
2023-03-06T21:59:54.878Z,23.85
2023-03-06T22:02:21.701Z,28.83
2023-03-06T22:04:52.670Z,25.65
2023-03-06T22:07:20.293Z,27.02
2023-03-06T22:09:47.316Z,26.35
2023-03-06T22:12:14.551Z,25.83
2023-03-06T22:14:43.651Z,23.70
2023-03-06T22:17:10.428Z,24.67
2023-03-06T22:19:37.323Z,27.13
2023-03-06T22:22:04.537Z,23.75
2023-03-06T22:24:34.001Z,27.50
2023-03-06T22:27:00.858Z,25.73
2023-03-06T22:29:27.676Z,26.65
2023-03-06T22:31:54.527Z,26.17
2023-03-06T22:34:21.325Z,25.10
2023-03-06T22:36:48.364Z,25.25
2023-03-06T22:39:15.226Z,25.52
2023-03-06T22:41:42.060Z,24.75
2023-03-06T22:44:09.992Z,26.63
2023-03-06T22:46:36.827Z,24.15
2023-03-06T22:49:03.860Z,25.60
2023-03-06T22:51:30.938Z,25.85
2023-03-06T22:53:58.250Z,24.55
2023-03-06T22:56:25.082Z,25.08
2023-03-06T22:58:52.082Z,25.38
2023-03-06T23:01:20.742Z,27.45
2023-03-06T23:03:49.240Z,25.83
2023-03-06T23:06:22.805Z,23.88
2023-03-06T23:08:51.387Z,23.30
2023-03-06T23:11:19.613Z,25.65
2023-03-06T23:13:46.533Z,24.98
2023-03-06T23:16:13.383Z,25.90
2023-03-06T23:18:40.437Z,24.02
2023-03-06T23:21:11.549Z,24.95
2023-03-06T23:23:39.025Z,22.35
2023-03-06T23:26:06.669Z,24.42
2023-03-06T23:28:33.653Z,24.52
2023-03-06T23:31:00.946Z,23.38
2023-03-06T23:33:27.849Z,27.45
2023-03-06T23:35:54.739Z,25.73
2023-03-06T23:38:21.643Z,24.05
2023-03-06T23:40:49.628Z,24.40
2023-03-06T23:43:16.488Z,23.15
2023-03-06T23:45:52.716Z,31.08
2023-03-06T23:48:19.635Z,24.05
2023-03-06T23:50:46.402Z,23.83
2023-03-06T23:53:13.468Z,24.27
2023-03-06T23:55:47.224Z,22.60
2023-03-06T23:58:16.370Z,24.00
